Saint Cloud, Minnesota
Current Conditions -  °F | °C
As of 5:53 PM on Wednesday 26 Nov 2014 (Local Time) from KSTC Reporting Station
Overcast Overcast  
Wind Chill:   Ceiling: 11000
Heat Index: 19°   Visibility: 10mi
Dew Point:   Wind: 12mph
Humidity: 59%   Direction: 350°N
Pressure: 30.31"   Gusts: NA
Location:  45.55°N, 94.06°W
Report Text: KSTC 262353Z 35010KT 10SM OVC110 M07/M14 A3031 RMK AO2 SLP290 T10721139 11039 21072 51023
Loading
Personal Weather Stations






























Interactive Weather Map New forecast layout! Learn more

10-Day Weather Forecast

Advertisements
Track Severe Weather on mobile